createdAt,value
2019-02-20T00:00:24.654Z,0
2019-02-20T00:01:24.603Z,0
2019-02-20T00:02:24.871Z,0
2019-02-20T00:03:24.335Z,0
2019-02-20T00:04:24.864Z,0
2019-02-20T00:05:25.118Z,0
2019-02-20T00:06:25.074Z,0
2019-02-20T00:07:25.077Z,0
2019-02-20T00:08:24.558Z,0
2019-02-20T00:09:25.219Z,0
2019-02-20T00:10:24.822Z,0
2019-02-20T00:11:24.777Z,0
2019-02-20T00:12:25.037Z,0
2019-02-20T00:13:24.770Z,0
2019-02-20T00:14:24.535Z,0
2019-02-20T00:15:24.742Z,0
2019-02-20T00:16:24.490Z,0
2019-02-20T00:17:24.725Z,0
2019-02-20T00:18:27.972Z,0
2019-02-20T00:19:24.879Z,0
2019-02-20T00:20:24.478Z,0
2019-02-20T00:21:24.937Z,0
2019-02-20T00:22:24.920Z,0
2019-02-20T00:23:24.918Z,0
2019-02-20T00:24:24.921Z,0
2019-02-20T00:25:24.421Z,0
2019-02-20T00:26:24.886Z,0
2019-02-20T00:27:24.904Z,0
2019-02-20T00:28:24.422Z,0
2019-02-20T00:29:24.875Z,0
2019-02-20T00:30:24.470Z,0
2019-02-20T00:31:24.877Z,0
2019-02-20T00:32:24.364Z,0
2019-02-20T00:33:24.315Z,0
2019-02-20T00:34:24.565Z,0
2019-02-20T00:35:24.574Z,0
2019-02-20T00:36:24.327Z,0
2019-02-20T00:37:24.546Z,0
2019-02-20T00:38:24.886Z,0
2019-02-20T00:39:24.784Z,0
2019-02-20T00:40:24.387Z,0
2019-02-20T00:41:24.528Z,0
2019-02-20T00:42:24.532Z,0
2019-02-20T00:43:24.269Z,0
2019-02-20T00:44:24.737Z,0
2019-02-20T00:45:24.808Z,0
2019-02-20T00:46:24.461Z,0
2019-02-20T00:47:24.211Z,0
2019-02-20T00:48:24.478Z,0
2019-02-20T00:49:24.203Z,0
2019-02-20T00:50:24.791Z,0
2019-02-20T00:51:24.666Z,0
2019-02-20T00:52:24.420Z,0
2019-02-20T00:53:24.665Z,0
2019-02-20T00:54:24.412Z,0
2019-02-20T00:55:24.667Z,0
2019-02-20T00:56:24.376Z,0
2019-02-20T00:57:24.114Z,0
2019-02-20T00:58:24.368Z,0
2019-02-20T00:59:26.509Z,0
2019-02-20T01:00:24.172Z,0
2019-02-20T01:01:24.609Z,0
2019-02-20T01:02:24.325Z,0
2019-02-20T01:03:24.329Z,0
2019-02-20T01:04:24.133Z,0
2019-02-20T01:05:24.150Z,0
2019-02-20T01:06:24.521Z,0
2019-02-20T01:07:24.045Z,0
2019-02-20T01:08:24.521Z,0
2019-02-20T01:09:24.501Z,0
2019-02-20T01:10:24.336Z,0
2019-02-20T01:11:24.285Z,0
2019-02-20T01:12:24.488Z,0
2019-02-20T01:13:23.722Z,0
2019-02-20T01:14:24.468Z,0
2019-02-20T01:15:24.308Z,0
2019-02-20T01:16:24.192Z,0
2019-02-20T01:17:24.434Z,0
2019-02-20T01:18:24.436Z,0
2019-02-20T01:19:24.311Z,0
2019-02-20T01:20:24.503Z,0
2019-02-20T01:21:24.401Z,0
2019-02-20T01:22:24.447Z,0
2019-02-20T01:23:23.922Z,0
2019-02-20T01:24:23.893Z,0
2019-02-20T01:25:23.956Z,0
2019-02-20T01:26:24.158Z,0
2019-02-20T01:27:23.872Z,0
2019-02-20T01:28:24.127Z,0
2019-02-20T01:29:23.850Z,0
2019-02-20T01:30:23.843Z,0
2019-02-20T01:31:24.317Z,0
2019-02-20T01:32:23.856Z,0
2019-02-20T01:33:25.898Z,0
2019-02-20T01:34:24.015Z,0
2019-02-20T01:35:24.322Z,0
2019-02-20T01:36:24.002Z,0
2019-02-20T01:37:24.020Z,0
2019-02-20T01:38:23.737Z,0
2019-02-20T01:39:24.217Z,0
2019-02-20T01:40:24.010Z,0
2019-02-20T01:41:23.490Z,0
2019-02-20T01:42:23.943Z,0
2019-02-20T01:43:24.211Z,0
2019-02-20T01:44:23.930Z,0
2019-02-20T01:45:24.008Z,0
2019-02-20T01:46:24.151Z,0
2019-02-20T01:47:23.644Z,0
2019-02-20T01:48:24.133Z,0
2019-02-20T01:49:23.658Z,0
2019-02-20T01:50:23.761Z,0
2019-02-20T01:51:24.122Z,0
2019-02-20T01:52:23.617Z,0
2019-02-20T01:53:23.856Z,0
2019-02-20T01:54:23.599Z,0
2019-02-20T01:55:24.121Z,0
2019-02-20T01:56:23.808Z,0
2019-02-20T01:57:24.054Z,0
2019-02-20T01:58:23.845Z,0
2019-02-20T01:59:23.596Z,0
2019-02-20T02:00:23.535Z,0
2019-02-20T02:01:23.763Z,0
2019-02-20T02:02:23.519Z,0
2019-02-20T02:03:23.767Z,0
2019-02-20T02:04:23.490Z,0
2019-02-20T02:05:25.008Z,0
2019-02-20T02:06:23.707Z,0
2019-02-20T02:07:23.198Z,0
2019-02-20T02:08:23.680Z,0
2019-02-20T02:09:23.422Z,0
2019-02-20T02:10:23.739Z,0
2019-02-20T02:11:23.154Z,0
2019-02-20T02:12:23.656Z,0
2019-02-20T02:13:23.680Z,0
2019-02-20T02:14:23.900Z,0
2019-02-20T02:15:30.229Z,0
2019-02-20T02:16:23.390Z,0
2019-02-20T02:17:23.604Z,0
2019-02-20T02:18:23.091Z,0
2019-02-20T02:19:23.842Z,0
2019-02-20T02:20:23.898Z,0
2019-02-20T02:21:23.355Z,0
2019-02-20T02:22:23.382Z,0
2019-02-20T02:23:29.040Z,0
2019-02-20T02:24:23.523Z,0
2019-02-20T02:25:23.625Z,0
2019-02-20T02:26:23.249Z,0
2019-02-20T02:27:23.784Z,0
2019-02-20T02:28:23.243Z,0
2019-02-20T02:29:23.263Z,0
2019-02-20T02:30:23.453Z,0
2019-02-20T02:31:23.218Z,0
2019-02-20T02:32:23.223Z,0
2019-02-20T02:33:23.428Z,0
2019-02-20T02:34:23.190Z,0
2019-02-20T02:35:23.215Z,0
2019-02-20T02:36:23.430Z,0
2019-02-20T02:37:23.165Z,0
2019-02-20T02:38:23.639Z,0
2019-02-20T02:39:23.624Z,0
2019-02-20T02:40:22.967Z,0
2019-02-20T02:41:23.100Z,0
2019-02-20T02:42:23.360Z,0
2019-02-20T02:43:23.630Z,0
2019-02-20T02:44:24.114Z,0
2019-02-20T02:45:23.233Z,0
2019-02-20T02:46:23.277Z,0
2019-02-20T02:47:22.860Z,0
2019-02-20T02:48:22.888Z,0
2019-02-20T02:49:23.299Z,0
2019-02-20T02:50:23.102Z,0
2019-02-20T02:51:23.574Z,0
2019-02-20T02:52:23.297Z,0
2019-02-20T02:53:33.128Z,0
2019-02-20T02:54:23.500Z,0
2019-02-20T02:55:23.248Z,0
2019-02-20T02:56:23.211Z,0
2019-02-20T02:57:23.429Z,0
2019-02-20T02:58:23.435Z,0
2019-02-20T02:59:23.224Z,0
2019-02-20T03:00:23.303Z,0
2019-02-20T03:01:22.962Z,0
2019-02-20T03:02:22.924Z,0
2019-02-20T03:03:23.372Z,0
2019-02-20T03:04:23.165Z,0
2019-02-20T03:05:23.197Z,0
2019-02-20T03:06:23.095Z,0
2019-02-20T03:07:23.070Z,0
2019-02-20T03:08:23.089Z,0
2019-02-20T03:09:22.811Z,0
2019-02-20T03:10:23.338Z,0
2019-02-20T03:11:23.032Z,0
2019-02-20T03:12:23.051Z,0
2019-02-20T03:13:22.544Z,0
2019-02-20T03:14:23.002Z,0
2019-02-20T03:15:23.018Z,0
2019-02-20T03:16:22.999Z,0
2019-02-20T03:17:22.468Z,0
2019-02-20T03:18:22.703Z,0
2019-02-20T03:19:22.729Z,0
2019-02-20T03:20:23.554Z,0
2019-02-20T03:21:23.280Z,0
2019-02-20T03:22:22.917Z,0
2019-02-20T03:23:23.174Z,0
2019-02-20T03:24:22.893Z,0
2019-02-20T03:25:22.892Z,0
2019-02-20T03:26:22.883Z,0
2019-02-20T03:27:22.615Z,0
2019-02-20T03:28:22.612Z,0
2019-02-20T03:29:22.854Z,0
2019-02-20T03:30:23.113Z,0
2019-02-20T03:31:23.158Z,0
2019-02-20T03:32:23.161Z,0
2019-02-20T03:33:22.859Z,0
2019-02-20T03:34:22.643Z,0
2019-02-20T03:35:22.565Z,0
2019-02-20T03:36:22.537Z,0
2019-02-20T03:37:22.767Z,0
2019-02-20T03:38:32.702Z,0
2019-02-20T03:39:22.831Z,0
2019-02-20T03:40:23.094Z,0
2019-02-20T03:41:22.740Z,0
2019-02-20T03:42:22.974Z,0
2019-02-20T03:43:22.707Z,0
2019-02-20T03:44:22.441Z,0
2019-02-20T03:45:22.793Z,0
2019-02-20T03:46:22.932Z,0
2019-02-20T03:47:24.806Z,0
2019-02-20T03:48:23.007Z,0
2019-02-20T03:49:22.381Z,0
2019-02-20T03:50:22.757Z,0
2019-02-20T03:51:22.628Z,0
2019-02-20T03:52:22.354Z,0
2019-02-20T03:53:22.359Z,0
2019-02-20T03:54:22.846Z,0
2019-02-20T03:55:21.986Z,0
2019-02-20T03:56:22.651Z,0
2019-02-20T03:57:22.810Z,0
2019-02-20T03:58:22.304Z,0
2019-02-20T03:59:22.283Z,0
2019-02-20T04:00:22.596Z,0
2019-02-20T04:01:22.518Z,0
2019-02-20T04:02:22.511Z,0
2019-02-20T04:03:22.464Z,0
2019-02-20T04:04:22.033Z,0
2019-02-20T04:05:22.505Z,0
2019-02-20T04:06:22.473Z,0
2019-02-20T04:07:21.973Z,0
2019-02-20T04:08:22.438Z,0
2019-02-20T04:09:22.539Z,0
2019-02-20T04:10:22.591Z,0
2019-02-20T04:11:22.659Z,0
2019-02-20T04:12:22.403Z,0
2019-02-20T04:13:22.182Z,0
2019-02-20T04:14:21.891Z,0
2019-02-20T04:15:22.254Z,0
2019-02-20T04:16:22.374Z,0
2019-02-20T04:17:22.387Z,0
2019-02-20T04:18:22.338Z,0
2019-02-20T04:19:22.096Z,0
2019-02-20T04:20:22.138Z,0
2019-02-20T04:21:22.651Z,0
2019-02-20T04:22:22.280Z,0
2019-02-20T04:23:22.296Z,0
2019-02-20T04:24:22.010Z,0
2019-02-20T04:25:21.831Z,0
2019-02-20T04:26:22.265Z,0
2019-02-20T04:27:21.763Z,0
2019-02-20T04:28:21.985Z,0
2019-02-20T04:29:22.196Z,0
2019-02-20T04:30:22.499Z,0
2019-02-20T04:31:21.957Z,0
2019-02-20T04:32:22.184Z,0
2019-02-20T04:33:21.941Z,0
2019-02-20T04:34:21.658Z,0
2019-02-20T04:35:21.959Z,0
2019-02-20T04:36:22.147Z,0
2019-02-20T04:37:21.633Z,0
2019-02-20T04:38:22.121Z,0
2019-02-20T04:39:22.206Z,0
2019-02-20T04:40:21.844Z,0
2019-02-20T04:41:22.433Z,0
2019-02-20T04:42:22.105Z,0
2019-02-20T04:43:21.564Z,0
2019-02-20T04:44:22.303Z,0
2019-02-20T04:45:22.119Z,0
2019-02-20T04:46:22.011Z,0
2019-02-20T04:47:21.549Z,0
2019-02-20T04:48:21.832Z,0
2019-02-20T04:49:21.780Z,0
2019-02-20T04:50:22.042Z,0
2019-02-20T04:51:22.234Z,0
2019-02-20T04:52:21.986Z,0
2019-02-20T04:53:21.472Z,0
2019-02-20T04:54:23.243Z,0
2019-02-20T04:55:21.573Z,0
2019-02-20T04:56:21.673Z,0
2019-02-20T04:57:21.915Z,0
2019-02-20T04:58:21.886Z,0
2019-02-20T04:59:21.633Z,0
2019-02-20T05:00:22.020Z,0
2019-02-20T05:01:22.115Z,0
2019-02-20T05:02:22.183Z,0
2019-02-20T05:03:23.184Z,0
2019-02-20T05:04:21.631Z,0
2019-02-20T05:05:22.147Z,0
2019-02-20T05:06:21.615Z,0
2019-02-20T05:07:21.829Z,0
2019-02-20T05:08:21.798Z,0
2019-02-20T05:09:21.787Z,0
2019-02-20T05:10:21.849Z,0
2019-02-20T05:11:21.585Z,0
2019-02-20T05:12:22.021Z,0
2019-02-20T05:13:21.549Z,0
2019-02-20T05:14:22.026Z,0
2019-02-20T05:15:21.788Z,0
2019-02-20T05:16:21.723Z,0
2019-02-20T05:17:21.983Z,0
2019-02-20T05:18:21.482Z,0
2019-02-20T05:19:21.456Z,0
2019-02-20T05:20:21.723Z,0
2019-02-20T05:21:21.586Z,0
2019-02-20T05:22:21.690Z,0
2019-02-20T05:23:21.921Z,0
2019-02-20T05:24:31.785Z,0
2019-02-20T05:25:21.424Z,0
2019-02-20T05:26:21.994Z,0
2019-02-20T05:27:21.640Z,0
2019-02-20T05:28:21.366Z,0
2019-02-20T05:29:21.353Z,0
2019-02-20T05:30:21.392Z,0
2019-02-20T05:31:23.459Z,0
2019-02-20T05:32:21.319Z,0
2019-02-20T05:33:21.297Z,0
2019-02-20T05:34:21.576Z,0
2019-02-20T05:35:21.290Z,0
2019-02-20T05:36:21.507Z,0
2019-02-20T05:37:21.040Z,0
2019-02-20T05:38:21.551Z,0
2019-02-20T05:39:21.057Z,0
2019-02-20T05:40:21.514Z,0
2019-02-20T05:41:21.820Z,0
2019-02-20T05:42:21.513Z,0
2019-02-20T05:43:21.502Z,0
2019-02-20T05:44:21.444Z,0
2019-02-20T05:45:21.582Z,0
2019-02-20T05:46:21.174Z,0
2019-02-20T05:47:21.668Z,0
2019-02-20T05:48:21.240Z,0
2019-02-20T05:49:21.566Z,0
2019-02-20T05:50:21.751Z,0
2019-02-20T05:51:21.405Z,0
2019-02-20T05:52:21.138Z,0
2019-02-20T05:53:21.363Z,0
2019-02-20T05:54:21.608Z,0
2019-02-20T05:55:20.933Z,0
2019-02-20T05:56:21.563Z,0
2019-02-20T05:57:21.075Z,0
2019-02-20T05:58:21.338Z,0
2019-02-20T05:59:21.112Z,0
2019-02-20T06:00:21.393Z,0
2019-02-20T06:01:21.317Z,0
2019-02-20T06:02:20.700Z,0
2019-02-20T06:03:21.029Z,0
2019-02-20T06:04:21.508Z,0
2019-02-20T06:05:21.558Z,0
2019-02-20T06:06:21.263Z,0
2019-02-20T06:07:21.495Z,0
2019-02-20T06:08:21.246Z,0
2019-02-20T06:09:21.470Z,0
2019-02-20T06:10:21.462Z,0
2019-02-20T06:11:23.965Z,0
2019-02-20T06:12:20.940Z,0
2019-02-20T06:13:21.419Z,0
2019-02-20T06:14:21.147Z,0
2019-02-20T06:15:20.752Z,0
2019-02-20T06:16:21.152Z,0
2019-02-20T06:17:21.104Z,0
2019-02-20T06:18:21.128Z,0
2019-02-20T06:19:21.096Z,0
2019-02-20T06:20:20.700Z,0
2019-02-20T06:21:23.541Z,0
2019-02-20T06:22:20.837Z,0
2019-02-20T06:23:20.894Z,5
2019-02-20T06:24:21.064Z,5
2019-02-20T06:25:21.455Z,5
2019-02-20T06:26:21.061Z,5
2019-02-20T06:27:21.040Z,5
2019-02-20T06:28:21.257Z,5
2019-02-20T06:29:21.262Z,5
2019-02-20T06:30:20.918Z,5
2019-02-20T06:31:20.975Z,10
2019-02-20T06:32:21.020Z,10
2019-02-20T06:33:21.222Z,10
2019-02-20T06:34:20.976Z,10
2019-02-20T06:35:20.523Z,10
2019-02-20T06:36:20.426Z,10
2019-02-20T06:37:20.928Z,15
2019-02-20T06:38:21.454Z,15
2019-02-20T06:39:21.156Z,15
2019-02-20T06:40:20.743Z,15
2019-02-20T06:41:21.141Z,15
2019-02-20T06:42:21.163Z,15
2019-02-20T06:43:20.865Z,20
2019-02-20T06:44:20.842Z,20
2019-02-20T06:45:20.857Z,20
2019-02-20T06:46:21.082Z,20
2019-02-20T06:47:20.826Z,20
2019-02-20T06:48:20.804Z,20
2019-02-20T06:49:21.075Z,25
2019-02-20T06:50:20.870Z,25
2019-02-20T06:51:20.806Z,25
2019-02-20T06:52:21.005Z,25
2019-02-20T06:53:20.781Z,25
2019-02-20T06:54:20.766Z,25
2019-02-20T06:55:20.329Z,25
2019-02-20T06:56:20.972Z,30
2019-02-20T06:57:20.523Z,30
2019-02-20T06:58:20.750Z,30
2019-02-20T06:59:21.164Z,30
2019-02-20T07:00:20.967Z,35
2019-02-20T07:01:20.934Z,35
2019-02-20T07:02:20.919Z,35
2019-02-20T07:03:20.675Z,35
2019-02-20T07:04:20.908Z,35
2019-02-20T07:05:20.726Z,40
2019-02-20T07:06:20.888Z,40
2019-02-20T07:07:20.606Z,40
2019-02-20T07:08:20.628Z,40
2019-02-20T07:09:22.177Z,40
2019-02-20T07:10:20.658Z,45
2019-02-20T07:11:20.588Z,45
2019-02-20T07:12:20.833Z,45
2019-02-20T07:13:20.550Z,45
2019-02-20T07:14:20.546Z,45
2019-02-20T07:15:20.642Z,50
2019-02-20T07:16:22.523Z,50
2019-02-20T07:17:20.782Z,55
2019-02-20T07:18:20.764Z,55
2019-02-20T07:19:20.534Z,55
2019-02-20T07:20:20.842Z,55
2019-02-20T07:21:20.247Z,55
2019-02-20T07:22:21.009Z,60
2019-02-20T07:23:20.466Z,60
2019-02-20T07:24:19.984Z,60
2019-02-20T07:25:20.517Z,60
2019-02-20T07:26:20.484Z,60
2019-02-20T07:27:20.468Z,65
2019-02-20T07:28:19.688Z,65
2019-02-20T07:29:20.446Z,65
2019-02-20T07:30:20.295Z,60
2019-02-20T07:31:20.665Z,65
2019-02-20T07:32:20.656Z,65
2019-02-20T07:33:20.379Z,70
2019-02-20T07:34:20.613Z,70
2019-02-20T07:35:20.359Z,75
2019-02-20T07:36:20.596Z,80
2019-02-20T07:37:20.339Z,85
2019-02-20T07:38:20.320Z,85
2019-02-20T07:39:20.579Z,90
2019-02-20T07:40:20.598Z,90
2019-02-20T07:41:20.304Z,90
2019-02-20T07:42:20.314Z,90
2019-02-20T07:43:20.601Z,95
2019-02-20T07:44:20.298Z,95
2019-02-20T07:45:20.612Z,95
2019-02-20T07:46:20.276Z,100
2019-02-20T07:47:20.068Z,100
2019-02-20T07:48:20.532Z,100
2019-02-20T07:49:19.981Z,100
2019-02-20T07:50:20.271Z,100
2019-02-20T07:51:22.064Z,100
2019-02-20T07:52:20.020Z,95
2019-02-20T07:53:20.472Z,100
2019-02-20T07:54:19.966Z,100
2019-02-20T07:55:23.031Z,110
2019-02-20T07:56:20.430Z,110
2019-02-20T07:57:20.188Z,110
2019-02-20T07:58:20.169Z,120
2019-02-20T07:59:19.935Z,115
2019-02-20T08:00:20.293Z,120
2019-02-20T08:01:20.431Z,125
2019-02-20T08:02:20.379Z,125
2019-02-20T08:03:19.637Z,125
2019-02-20T08:04:20.375Z,130
2019-02-20T08:05:19.927Z,130
2019-02-20T08:06:20.114Z,135
2019-02-20T08:07:19.936Z,130
2019-02-20T08:08:20.110Z,130
2019-02-20T08:09:20.084Z,130
2019-02-20T08:10:20.503Z,135
2019-02-20T08:11:20.120Z,135
2019-02-20T08:12:19.870Z,135
2019-02-20T08:13:20.310Z,130
2019-02-20T08:14:20.060Z,125
2019-02-20T08:15:20.311Z,125
2019-02-20T08:16:19.834Z,125
2019-02-20T08:17:20.073Z,120
2019-02-20T08:18:19.825Z,120
2019-02-20T08:19:21.726Z,120
2019-02-20T08:20:19.791Z,130
2019-02-20T08:21:20.235Z,120
2019-02-20T08:22:21.055Z,125
2019-02-20T08:23:19.500Z,130
2019-02-20T08:24:20.235Z,145
2019-02-20T08:25:29.342Z,150
2019-02-20T08:26:19.219Z,155
2019-02-20T08:27:20.183Z,160
2019-02-20T08:28:19.952Z,165
2019-02-20T08:29:19.689Z,175
2019-02-20T08:30:19.505Z,175
2019-02-20T08:31:19.698Z,170
2019-02-20T08:32:19.927Z,150
2019-02-20T08:33:19.954Z,150
2019-02-20T08:34:19.914Z,155
2019-02-20T08:35:19.725Z,175
2019-02-20T08:36:19.662Z,175
2019-02-20T08:37:22.355Z,175
2019-02-20T08:38:19.901Z,180
2019-02-20T08:39:20.183Z,160
2019-02-20T08:40:19.914Z,150
2019-02-20T08:41:20.113Z,155
2019-02-20T08:42:19.362Z,160
2019-02-20T08:43:19.633Z,150
2019-02-20T08:44:20.134Z,155
2019-02-20T08:45:19.950Z,165
2019-02-20T08:46:20.141Z,175
2019-02-20T08:47:19.885Z,175
2019-02-20T08:48:20.134Z,180
2019-02-20T08:49:20.093Z,180
2019-02-20T08:50:21.660Z,180
2019-02-20T08:51:19.848Z,165
2019-02-20T08:52:19.587Z,150
2019-02-20T08:53:20.134Z,185
2019-02-20T08:54:19.580Z,190
2019-02-20T08:55:21.353Z,175
2019-02-20T08:56:20.077Z,185
2019-02-20T08:57:19.855Z,170
2019-02-20T08:58:19.831Z,195
2019-02-20T08:59:19.838Z,195
2019-02-20T09:00:21.035Z,200
2019-02-20T09:01:19.808Z,200
2019-02-20T09:02:19.571Z,200
2019-02-20T09:03:19.538Z,190
2019-02-20T09:04:19.810Z,180
2019-02-20T09:05:19.608Z,180
2019-02-20T09:06:19.528Z,195
2019-02-20T09:07:19.975Z,180
2019-02-20T09:08:19.485Z,165
2019-02-20T09:09:19.243Z,160
2019-02-20T09:10:22.222Z,165
2019-02-20T09:11:20.019Z,150
2019-02-20T09:12:19.002Z,165
2019-02-20T09:13:19.481Z,165
2019-02-20T09:14:19.733Z,165
2019-02-20T09:15:19.777Z,170
2019-02-20T09:16:19.748Z,170
2019-02-20T09:17:19.713Z,185
2019-02-20T09:18:19.698Z,200
2019-02-20T09:19:19.224Z,190
2019-02-20T09:20:19.997Z,175
2019-02-20T09:21:19.453Z,195
2019-02-20T09:22:19.934Z,200
2019-02-20T09:23:19.969Z,200
2019-02-20T09:24:19.445Z,200
2019-02-20T09:25:28.712Z,200
2019-02-20T09:26:19.905Z,200
2019-02-20T09:27:19.401Z,200
2019-02-20T09:28:19.650Z,195
2019-02-20T09:29:19.399Z,180
2019-02-20T09:30:28.026Z,180
2019-02-20T09:31:19.383Z,165
2019-02-20T09:32:19.381Z,155
2019-02-20T09:33:19.847Z,155
2019-02-20T09:34:19.397Z,160
2019-02-20T09:35:19.703Z,165
2019-02-20T09:36:19.627Z,190
2019-02-20T09:37:19.340Z,200
2019-02-20T09:38:19.639Z,205
2019-02-20T09:39:19.580Z,205
2019-02-20T09:40:19.882Z,190
2019-02-20T09:41:19.560Z,205
2019-02-20T09:42:19.086Z,210
2019-02-20T09:43:19.358Z,210
2019-02-20T09:44:19.785Z,210
2019-02-20T09:45:19.626Z,210
2019-02-20T09:46:19.842Z,210
2019-02-20T09:47:19.763Z,210
2019-02-20T09:48:19.771Z,210
2019-02-20T09:49:19.253Z,210
2019-02-20T09:50:19.096Z,210
2019-02-20T09:51:19.309Z,210
2019-02-20T09:52:19.482Z,210
2019-02-20T09:53:18.976Z,205
2019-02-20T09:54:19.204Z,210
2019-02-20T09:55:19.046Z,205
2019-02-20T09:56:20.764Z,205
2019-02-20T09:57:18.955Z,205
2019-02-20T09:58:19.241Z,200
2019-02-20T09:59:19.447Z,200
2019-02-20T10:00:19.573Z,200
2019-02-20T10:01:19.782Z,200
2019-02-20T10:02:19.004Z,200
2019-02-20T10:03:19.728Z,200
2019-02-20T10:04:19.679Z,195
2019-02-20T10:05:19.405Z,195
2019-02-20T10:06:20.250Z,200
2019-02-20T10:07:19.403Z,200
2019-02-20T10:08:19.411Z,195
2019-02-20T10:09:20.858Z,205
2019-02-20T10:10:19.708Z,200
2019-02-20T10:11:19.638Z,195
2019-02-20T10:12:19.419Z,195
2019-02-20T10:13:20.618Z,195
2019-02-20T10:14:19.145Z,200
2019-02-20T10:15:19.519Z,205
2019-02-20T10:16:19.408Z,205
2019-02-20T10:17:19.382Z,205
2019-02-20T10:18:21.658Z,185
2019-02-20T10:19:19.089Z,175
2019-02-20T10:20:19.379Z,210
2019-02-20T10:21:19.452Z,215
2019-02-20T10:22:19.317Z,210
2019-02-20T10:23:19.345Z,215
2019-02-20T10:24:19.060Z,170
2019-02-20T10:25:19.167Z,195
2019-02-20T10:26:19.079Z,175
2019-02-20T10:27:19.065Z,170
2019-02-20T10:28:19.329Z,190
2019-02-20T10:29:19.292Z,170
2019-02-20T10:30:19.220Z,165
2019-02-20T10:31:19.290Z,185
2019-02-20T10:32:19.321Z,170
2019-02-20T10:33:19.039Z,165
2019-02-20T10:34:20.339Z,160
2019-02-20T10:35:19.325Z,160
2019-02-20T10:36:19.048Z,155
2019-02-20T10:37:19.285Z,155
2019-02-20T10:38:19.250Z,155
2019-02-20T10:39:19.535Z,155
2019-02-20T10:40:19.554Z,155
2019-02-20T10:41:19.256Z,160
2019-02-20T10:42:19.643Z,170
2019-02-20T10:43:19.237Z,155
2019-02-20T10:44:19.480Z,160
2019-02-20T10:45:19.499Z,165
2019-02-20T10:46:19.263Z,155
2019-02-20T10:47:18.983Z,155
2019-02-20T10:48:19.467Z,155
2019-02-20T10:49:19.196Z,155
2019-02-20T10:50:19.232Z,160
2019-02-20T10:51:18.964Z,165
2019-02-20T10:52:19.448Z,160
2019-02-20T10:53:19.177Z,165
2019-02-20T10:54:18.932Z,165
2019-02-20T10:55:19.170Z,165
2019-02-20T10:56:19.203Z,165
2019-02-20T10:57:18.676Z,165
2019-02-20T10:58:19.420Z,170
2019-02-20T10:59:19.165Z,175
2019-02-20T11:00:30.222Z,180
2019-02-20T11:01:19.163Z,185
2019-02-20T11:02:18.675Z,180
2019-02-20T11:03:19.155Z,180
2019-02-20T11:04:18.914Z,190
2019-02-20T11:05:19.263Z,180
2019-02-20T11:06:19.148Z,175
2019-02-20T11:07:18.909Z,180
2019-02-20T11:08:18.865Z,185
2019-02-20T11:09:18.914Z,185
2019-02-20T11:10:18.643Z,190
2019-02-20T11:11:19.180Z,195
2019-02-20T11:12:18.884Z,190
2019-02-20T11:13:18.634Z,195
2019-02-20T11:14:19.112Z,195
2019-02-20T11:15:19.937Z,195
2019-02-20T11:16:19.096Z,200
2019-02-20T11:17:18.853Z,205
2019-02-20T11:18:19.355Z,205
2019-02-20T11:19:20.196Z,200
2019-02-20T11:20:20.758Z,195
2019-02-20T11:21:19.098Z,195
2019-02-20T11:22:20.492Z,195
2019-02-20T11:23:18.853Z,190
2019-02-20T11:24:20.330Z,190
2019-02-20T11:25:19.372Z,190
2019-02-20T11:26:26.636Z,185
2019-02-20T11:27:19.473Z,190
2019-02-20T11:28:26.600Z,185
2019-02-20T11:29:19.067Z,180
2019-02-20T11:30:19.107Z,180
2019-02-20T11:31:18.787Z,180
2019-02-20T11:32:19.298Z,180
2019-02-20T11:33:19.296Z,180
2019-02-20T11:34:19.751Z,180
2019-02-20T11:35:19.063Z,180
2019-02-20T11:36:19.298Z,180
2019-02-20T11:37:19.030Z,180
2019-02-20T11:38:18.528Z,180
2019-02-20T11:39:20.971Z,185
2019-02-20T11:40:19.065Z,190
2019-02-20T11:41:20.262Z,190
2019-02-20T11:42:19.015Z,195
2019-02-20T11:43:20.809Z,195
2019-02-20T11:44:28.178Z,195
2019-02-20T11:45:19.042Z,205
2019-02-20T11:46:19.222Z,200
2019-02-20T11:47:18.742Z,200
2019-02-20T11:48:18.713Z,205
2019-02-20T11:49:18.706Z,205
2019-02-20T11:50:19.020Z,200
2019-02-20T11:51:18.986Z,200
2019-02-20T11:52:20.833Z,200
2019-02-20T11:53:18.747Z,195
2019-02-20T11:54:18.982Z,195
2019-02-20T11:55:19.088Z,195
2019-02-20T11:56:26.362Z,200
2019-02-20T11:57:20.739Z,200
2019-02-20T11:58:18.981Z,205
2019-02-20T11:59:18.720Z,210
2019-02-20T12:00:19.032Z,210
2019-02-20T12:01:18.957Z,215
2019-02-20T12:02:19.215Z,225
2019-02-20T12:03:19.252Z,220
2019-02-20T12:04:18.766Z,220
2019-02-20T12:05:18.801Z,220
2019-02-20T12:06:18.951Z,220
2019-02-20T12:07:18.687Z,220
2019-02-20T12:08:18.938Z,215
2019-02-20T12:09:19.192Z,220
2019-02-20T12:10:19.780Z,220
2019-02-20T12:11:18.684Z,225
2019-02-20T12:12:18.924Z,225
2019-02-20T12:13:19.201Z,225
2019-02-20T12:14:18.684Z,220
2019-02-20T12:15:18.959Z,220
2019-02-20T12:16:18.918Z,215
2019-02-20T12:17:19.166Z,220
2019-02-20T12:18:26.139Z,215
2019-02-20T12:19:19.189Z,210
2019-02-20T12:20:18.980Z,210
2019-02-20T12:21:18.911Z,205
2019-02-20T12:22:18.665Z,200
2019-02-20T12:23:18.903Z,200
2019-02-20T12:24:18.923Z,200
2019-02-20T12:25:18.947Z,195
2019-02-20T12:26:19.167Z,190
2019-02-20T12:27:18.927Z,195
2019-02-20T12:28:18.906Z,190
2019-02-20T12:29:20.498Z,190
2019-02-20T12:30:18.728Z,190
2019-02-20T12:31:18.901Z,195
2019-02-20T12:32:18.123Z,195
2019-02-20T12:33:18.869Z,205
2019-02-20T12:34:18.376Z,205
2019-02-20T12:35:18.914Z,210
2019-02-20T12:36:18.932Z,205
2019-02-20T12:37:18.628Z,195
2019-02-20T12:38:18.601Z,195
2019-02-20T12:39:18.612Z,195
2019-02-20T12:40:18.927Z,195
2019-02-20T12:41:19.986Z,200
2019-02-20T12:42:20.212Z,185
2019-02-20T12:43:19.106Z,195
2019-02-20T12:44:18.100Z,200
2019-02-20T12:45:19.093Z,200
2019-02-20T12:46:18.631Z,195
2019-02-20T12:47:18.575Z,195
2019-02-20T12:48:18.829Z,190
2019-02-20T12:49:18.837Z,185
2019-02-20T12:50:19.098Z,175
2019-02-20T12:51:18.588Z,190
2019-02-20T12:52:18.548Z,190
2019-02-20T12:53:18.583Z,185
2019-02-20T12:54:20.274Z,180
2019-02-20T12:55:18.620Z,190
2019-02-20T12:56:19.308Z,185
2019-02-20T12:57:19.431Z,190
2019-02-20T12:58:18.812Z,190
2019-02-20T12:59:18.549Z,190
2019-02-20T13:00:19.086Z,190
2019-02-20T13:01:18.549Z,190
2019-02-20T13:02:19.053Z,190
2019-02-20T13:03:19.036Z,190
2019-02-20T13:04:18.731Z,185
2019-02-20T13:05:19.061Z,185
2019-02-20T13:06:18.776Z,180
2019-02-20T13:07:20.134Z,185
2019-02-20T13:08:19.100Z,185
2019-02-20T13:09:18.542Z,180
2019-02-20T13:10:18.838Z,180
2019-02-20T13:11:19.389Z,175
2019-02-20T13:12:19.015Z,175
2019-02-20T13:13:18.774Z,175
2019-02-20T13:14:18.528Z,175
2019-02-20T13:15:19.060Z,170
2019-02-20T13:16:18.896Z,170
2019-02-20T13:17:18.731Z,175
2019-02-20T13:18:19.235Z,175
2019-02-20T13:19:18.514Z,170
2019-02-20T13:20:18.547Z,155
2019-02-20T13:21:19.887Z,160
2019-02-20T13:22:19.264Z,155
2019-02-20T13:23:20.137Z,170
2019-02-20T13:24:19.535Z,165
2019-02-20T13:25:20.914Z,165
2019-02-20T13:26:18.489Z,165
2019-02-20T13:27:27.573Z,160
2019-02-20T13:28:18.975Z,165
2019-02-20T13:29:18.773Z,170
2019-02-20T13:30:18.750Z,165
2019-02-20T13:31:18.975Z,150
2019-02-20T13:32:20.645Z,150
2019-02-20T13:33:17.996Z,155
2019-02-20T13:34:18.725Z,155
2019-02-20T13:35:18.790Z,165
2019-02-20T13:36:18.964Z,160
2019-02-20T13:37:19.041Z,160
2019-02-20T13:38:20.344Z,160
2019-02-20T13:39:18.976Z,155
2019-02-20T13:40:19.040Z,155
2019-02-20T13:41:19.287Z,160
2019-02-20T13:42:19.086Z,150
2019-02-20T13:43:19.374Z,155
2019-02-20T13:44:20.195Z,165
2019-02-20T13:45:18.781Z,155
2019-02-20T13:46:18.688Z,160
2019-02-20T13:47:18.943Z,150
2019-02-20T13:48:18.672Z,150
2019-02-20T13:49:19.199Z,150
2019-02-20T13:50:21.639Z,145
2019-02-20T13:51:19.961Z,150
2019-02-20T13:52:18.397Z,145
2019-02-20T13:53:21.430Z,150
2019-02-20T13:54:19.788Z,160
2019-02-20T13:55:18.429Z,165
2019-02-20T13:56:18.661Z,160
2019-02-20T13:57:18.645Z,165
2019-02-20T13:58:20.456Z,165
2019-02-20T13:59:18.924Z,165
2019-02-20T14:00:20.443Z,175
2019-02-20T14:01:18.395Z,170
2019-02-20T14:02:18.914Z,175
2019-02-20T14:03:19.862Z,175
2019-02-20T14:04:18.613Z,160
2019-02-20T14:05:19.559Z,160
2019-02-20T14:06:19.900Z,170
2019-02-20T14:07:18.376Z,170
2019-02-20T14:08:17.950Z,170
2019-02-20T14:09:20.081Z,165
2019-02-20T14:10:19.606Z,165
2019-02-20T14:11:18.632Z,160
2019-02-20T14:12:19.062Z,160
2019-02-20T14:13:19.252Z,160
2019-02-20T14:14:19.130Z,150
2019-02-20T14:15:20.006Z,150